Parker, Washington
Current Conditions -  °F | °C
As of 6:53 AM on Thursday 23 Oct 2014 (Local Time) from KYKM Reporting Station
Overcast Overcast  
Wind Chill: 48°   Ceiling: 6500
Heat Index: 48°   Visibility: 10mi
Dew Point: 45°   Wind: 0mph
Humidity: 89%   Direction: NA
Pressure: 29.76"   Gusts: NA
Location:  46.5°N, 120.47°W
Report Text: KYKM 231353Z 00000KT 10SM OVC065 09/07 A2976 RMK AO2 RAB10E38 SLP079 P0001 T00890072
Loading
Personal Weather Stations






























Interactive Weather Map
Tropical Storm Tracking
New forecast layout! Learn more

10-Day Weather Forecast

Advertisements
Track Severe Weather on mobile